createdAt,value
2019-03-21T00:04:28.797Z,14.50
2019-03-21T00:09:21.173Z,15.47
2019-03-21T00:14:16.937Z,18.43
2019-03-21T00:19:09.526Z,19.40
2019-03-21T00:24:02.157Z,52.50
2019-03-21T00:28:54.593Z,36.30
2019-03-21T00:33:47.334Z,22.80
2019-03-21T00:38:39.784Z,38.27
2019-03-21T00:43:32.122Z,32.33
2019-03-21T00:48:24.953Z,28.80
2019-03-21T00:53:17.657Z,27.67
2019-03-21T00:58:10.201Z,22.30
2019-03-21T01:03:03.828Z,28.80
2019-03-21T01:07:56.481Z,23.47
2019-03-21T01:12:49.071Z,18.77
2019-03-21T01:17:41.874Z,30.03
2019-03-21T01:22:34.378Z,29.07
2019-03-21T01:27:26.897Z,23.70
2019-03-21T01:32:19.605Z,21.80
2019-03-21T01:37:13.310Z,21.83
2019-03-21T01:42:06.249Z,25.47
2019-03-21T01:46:58.581Z,25.30
2019-03-21T01:51:51.170Z,33.23
2019-03-21T01:56:43.773Z,21.40
2019-03-21T02:01:36.708Z,25.47
2019-03-21T02:06:29.337Z,36.30
2019-03-21T02:11:21.794Z,99.60
2019-03-21T02:16:14.285Z,56.47
2019-03-21T02:21:06.842Z,27.53
2019-03-21T02:25:59.244Z,51.13
2019-03-21T02:30:53.147Z,71.43
2019-03-21T02:35:46.641Z,37.63
2019-03-21T02:40:39.048Z,28.10
2019-03-21T02:45:31.608Z,23.90
2019-03-21T02:50:33.249Z,36.47
2019-03-21T02:55:25.924Z,66.57
2019-03-21T03:00:21.300Z,36.00
2019-03-21T03:05:16.517Z,27.00
2019-03-21T03:10:23.679Z,23.30
2019-03-21T03:15:23.543Z,43.97
2019-03-21T03:20:17.847Z,48.67
2019-03-21T03:25:15.914Z,42.63
2019-03-21T03:30:15.054Z,24.67
2019-03-21T03:35:10.294Z,23.47
2019-03-21T03:40:03.256Z,24.40
2019-03-21T03:44:55.822Z,23.20
2019-03-21T03:49:48.205Z,24.67
2019-03-21T03:54:40.835Z,24.00
2019-03-21T03:59:33.552Z,22.57
2019-03-21T04:04:26.239Z,26.50
2019-03-21T04:09:18.965Z,21.07
2019-03-21T04:14:11.771Z,19.87
2019-03-21T04:19:04.187Z,17.40
2019-03-21T04:23:59.554Z,24.57
2019-03-21T04:28:50.546Z,24.20
2019-03-21T04:33:45.379Z,22.40
2019-03-21T04:38:37.773Z,20.57
2019-03-21T04:43:30.293Z,29.70
2019-03-21T04:48:22.685Z,26.80
2019-03-21T04:53:15.156Z,23.67
2019-03-21T04:58:07.334Z,21.13
2019-03-21T05:03:02.542Z,21.57
2019-03-21T05:07:55.016Z,26.53
2019-03-21T05:12:47.837Z,42.37
2019-03-21T05:17:40.585Z,23.57
2019-03-21T05:22:33.425Z,23.27
2019-03-21T05:27:25.926Z,28.80
2019-03-21T05:32:18.703Z,22.03
2019-03-21T05:41:55.771Z,25.67
2019-03-21T05:46:47.972Z,49.10
2019-03-21T05:51:40.510Z,28.23
2019-03-21T05:56:33.320Z,35.17
2019-03-21T06:01:28.998Z,22.40
2019-03-21T06:06:33.241Z,22.70
2019-03-21T06:11:25.841Z,22.67
2019-03-21T06:16:18.017Z,20.30
2019-03-21T06:21:22.785Z,34.00
2019-03-21T06:26:24.144Z,30.37
2019-03-21T06:31:16.784Z,41.07
2019-03-21T06:36:09.297Z,30.77
2019-03-21T06:41:01.605Z,31.67
2019-03-21T06:45:54.212Z,28.33
2019-03-21T06:50:46.970Z,29.37
2019-03-21T06:55:39.749Z,36.47
2019-03-21T07:00:32.137Z,37.70
2019-03-21T07:05:26.741Z,31.80
2019-03-21T07:10:18.729Z,28.53
2019-03-21T07:15:12.602Z,65.53
2019-03-21T07:20:07.458Z,69.33
2019-03-21T07:25:00.069Z,64.53
2019-03-21T07:29:52.497Z,62.60
2019-03-21T07:34:44.981Z,103.67
2019-03-21T07:39:37.293Z,75.70
2019-03-21T07:44:29.670Z,56.55
2019-03-21T07:49:22.075Z,178.53
2019-03-21T07:54:14.661Z,77.95
2019-03-21T07:59:07.290Z,40.45
2019-03-21T08:04:02.737Z,26.95
2019-03-21T08:08:54.202Z,59.77
2019-03-21T08:13:46.896Z,35.45
2019-03-21T08:18:39.421Z,41.05
2019-03-21T08:23:31.617Z,22.13
2019-03-21T08:28:24.325Z,22.07
2019-03-21T08:33:16.945Z,19.00
2019-03-21T08:38:09.648Z,18.77
2019-03-21T08:43:01.969Z,17.32
2019-03-21T08:47:54.569Z,11.93
2019-03-21T08:52:47.145Z,11.80
2019-03-21T08:57:39.440Z,12.55
2019-03-21T09:02:31.916Z,14.10
2019-03-21T09:07:25.054Z,9.43
2019-03-21T09:12:17.476Z,9.23
2019-03-21T09:17:09.945Z,13.98
2019-03-21T09:22:02.578Z,8.98
2019-03-21T09:26:55.551Z,7.22
2019-03-21T09:31:48.223Z,8.48
2019-03-21T09:36:40.634Z,10.08
2019-03-21T09:41:33.215Z,7.53
2019-03-21T09:46:25.884Z,6.72
2019-03-21T09:51:18.447Z,9.40
2019-03-21T09:56:10.610Z,8.63
2019-03-21T10:01:03.519Z,5.35
2019-03-21T10:05:55.966Z,5.60
2019-03-21T10:10:48.688Z,6.00
2019-03-21T10:15:41.168Z,7.97
2019-03-21T10:20:33.826Z,8.08
2019-03-21T10:25:26.989Z,5.40
2019-03-21T10:30:34.622Z,5.22
2019-03-21T10:35:27.055Z,4.65
2019-03-21T10:40:19.803Z,5.22
2019-03-21T10:45:12.324Z,7.10
2019-03-21T10:50:06.821Z,6.53
2019-03-21T10:54:59.538Z,7.33
2019-03-21T10:59:52.133Z,7.20
2019-03-21T11:04:44.950Z,7.47
2019-03-21T11:09:37.515Z,4.87
2019-03-21T11:14:30.093Z,8.95
2019-03-21T11:19:22.456Z,8.98
2019-03-21T11:24:15.122Z,7.30
2019-03-21T11:29:07.607Z,6.97
2019-03-21T11:33:59.921Z,7.97
2019-03-21T11:38:52.452Z,7.47
2019-03-21T11:43:45.277Z,5.55
2019-03-21T11:48:37.955Z,5.42
2019-03-21T11:53:30.696Z,4.42
2019-03-21T11:58:23.351Z,6.28
2019-03-21T12:03:16.008Z,6.58
2019-03-21T12:08:08.858Z,5.60
2019-03-21T12:13:01.533Z,6.75
2019-03-21T12:17:54.206Z,6.80
2019-03-21T12:22:47.452Z,6.10
2019-03-21T12:27:40.161Z,6.37
2019-03-21T12:32:32.776Z,4.85
2019-03-21T12:37:25.277Z,5.53
2019-03-21T12:42:17.817Z,4.97
2019-03-21T12:47:10.166Z,7.37
2019-03-21T12:52:02.566Z,5.87
2019-03-21T12:56:55.097Z,5.55
2019-03-21T13:01:47.686Z,4.90
2019-03-21T13:06:40.194Z,4.87
2019-03-21T13:11:32.593Z,6.08
2019-03-21T13:16:25.128Z,6.87
2019-03-21T13:21:17.641Z,4.65
2019-03-21T13:26:10.328Z,6.45
2019-03-21T13:31:02.803Z,5.78
2019-03-21T13:35:55.341Z,4.92
2019-03-21T13:40:47.748Z,4.17
2019-03-21T13:45:40.433Z,6.53
2019-03-21T13:50:32.818Z,4.40
2019-03-21T13:55:25.293Z,5.67
2019-03-21T14:00:20.213Z,4.08
2019-03-21T14:05:13.241Z,5.10
2019-03-21T14:10:08.726Z,4.50
2019-03-21T14:15:01.208Z,3.47
2019-03-21T14:19:53.817Z,4.03
2019-03-21T14:24:46.265Z,5.60
2019-03-21T14:29:38.433Z,4.85
2019-03-21T14:34:31.149Z,4.10
2019-03-21T14:39:23.413Z,3.15
2019-03-21T14:44:15.871Z,4.53
2019-03-21T14:49:08.265Z,3.72
2019-03-21T14:54:01.223Z,3.75
2019-03-21T14:58:53.579Z,3.00
2019-03-21T15:03:46.309Z,2.52
2019-03-21T15:08:38.630Z,4.55
2019-03-21T15:13:31.386Z,5.15
2019-03-21T15:18:24.018Z,3.52
2019-03-21T15:23:16.773Z,3.90
2019-03-21T15:28:09.473Z,4.17
2019-03-21T15:33:01.858Z,6.62
2019-03-21T15:37:54.244Z,5.00
2019-03-21T15:42:46.724Z,5.30
2019-03-21T15:47:39.471Z,5.05
2019-03-21T15:52:32.849Z,3.72
2019-03-21T15:57:25.304Z,5.40
2019-03-21T16:02:17.809Z,3.65
2019-03-21T16:07:10.528Z,7.28
2019-03-21T16:12:02.916Z,4.17
2019-03-21T16:16:55.608Z,5.85
2019-03-21T16:21:48.049Z,9.25
2019-03-21T16:26:42.613Z,9.23
2019-03-21T16:31:36.014Z,10.85
2019-03-21T16:36:28.495Z,9.33
2019-03-21T16:41:21.068Z,10.30
2019-03-21T16:46:13.726Z,10.58
2019-03-21T16:51:06.650Z,10.95
2019-03-21T16:55:58.822Z,11.38
2019-03-21T17:00:51.487Z,9.68
2019-03-21T17:05:44.073Z,9.63
2019-03-21T17:10:36.646Z,9.75
2019-03-21T17:15:28.882Z,8.70
2019-03-21T17:20:21.986Z,10.93
2019-03-21T17:25:14.867Z,11.05
2019-03-21T17:30:14.997Z,9.13
2019-03-21T17:35:07.697Z,8.65
2019-03-21T17:40:00.324Z,10.63
2019-03-21T17:44:54.515Z,7.83
2019-03-21T17:49:47.615Z,10.03
2019-03-21T17:54:41.836Z,8.18
2019-03-21T17:59:35.859Z,9.23
2019-03-21T18:04:30.608Z,8.18
2019-03-21T18:09:23.305Z,8.03
2019-03-21T18:14:15.703Z,9.05
2019-03-21T18:19:28.356Z,8.08
2019-03-21T18:24:21.832Z,9.50
2019-03-21T18:29:14.340Z,10.55
2019-03-21T18:34:07.568Z,92.62
2019-03-21T18:39:00.267Z,65.67
2019-03-21T18:43:53.546Z,108.87
2019-03-21T18:48:46.659Z,72.60
2019-03-21T18:53:39.183Z,81.40
2019-03-21T18:58:32.037Z,65.47
2019-03-21T19:03:24.555Z,27.43
2019-03-21T19:08:17.193Z,37.48
2019-03-21T19:13:09.973Z,47.03
2019-03-21T19:18:04.193Z,67.53
2019-03-21T19:22:56.999Z,49.30
2019-03-21T19:27:49.579Z,28.30
2019-03-21T19:32:43.982Z,23.70
2019-03-21T19:37:36.995Z,35.85
2019-03-21T19:42:31.505Z,25.63
2019-03-21T19:47:29.842Z,19.27
2019-03-21T19:52:19.584Z,16.50
2019-03-21T19:57:12.031Z,21.47
2019-03-21T20:02:04.697Z,15.23
2019-03-21T20:06:57.331Z,14.23
2019-03-21T20:11:50.061Z,15.50
2019-03-21T20:16:44.265Z,12.57
2019-03-21T20:21:47.316Z,12.43
2019-03-21T20:26:31.170Z,10.87
2019-03-21T20:31:28.763Z,13.43
2019-03-21T20:36:21.484Z,22.73
2019-03-21T20:41:15.277Z,17.33
2019-03-21T20:46:08.262Z,14.23
2019-03-21T20:51:00.986Z,13.40
2019-03-21T20:55:54.220Z,16.83
2019-03-21T21:00:47.102Z,19.17
2019-03-21T21:05:41.606Z,22.20
2019-03-21T21:10:35.487Z,13.97
2019-03-21T21:15:27.880Z,24.07
2019-03-21T21:20:20.443Z,23.23
2019-03-21T21:25:14.331Z,17.43
2019-03-21T21:30:12.827Z,31.37
2019-03-21T21:35:07.352Z,21.67
2019-03-21T21:40:00.030Z,32.17
2019-03-21T21:44:52.971Z,22.90
2019-03-21T21:49:46.237Z,23.60
2019-03-21T21:54:38.973Z,41.33
2019-03-21T21:59:32.506Z,19.63
2019-03-21T22:04:25.159Z,14.43
2019-03-21T22:09:20.845Z,17.87
2019-03-21T22:14:13.284Z,19.73
2019-03-21T22:19:05.476Z,14.83
2019-03-21T22:23:57.907Z,13.97
2019-03-21T22:28:50.633Z,17.50
2019-03-21T22:33:43.238Z,17.93
2019-03-21T22:38:35.777Z,19.17
2019-03-21T22:43:28.305Z,15.70
2019-03-21T22:48:21.123Z,21.30
2019-03-21T22:53:13.522Z,21.33
2019-03-21T22:58:05.813Z,21.27
2019-03-21T23:02:58.517Z,20.20
2019-03-21T23:07:51.021Z,31.40
2019-03-21T23:12:43.857Z,24.47
2019-03-21T23:17:38.561Z,22.83
2019-03-21T23:22:30.952Z,15.27
2019-03-21T23:27:23.492Z,19.07
2019-03-21T23:32:15.773Z,21.80
2019-03-21T23:37:08.354Z,24.83
2019-03-21T23:42:00.867Z,14.20
2019-03-21T23:47:12.786Z,17.30
2019-03-21T23:52:05.277Z,17.93
2019-03-21T23:57:04.831Z,27.20
